Time;durP1;ratioP1;P1;durP2;ratioP2;P2;SDS_P1;SDS_P2;PMS_P1;PMS_P2;Temp;Humidity;BMP_temperature;BMP_pressure;BME280_temperature;BME280_humidity;BME280_pressure;Samples;Min_cycle;Max_cycle;Signal;HPM_P1;HPM_P2
2021/09/11 00:02:21;;;;;;;8.93;7.80;;;;;;;21.89;55.82;96792.53;5088975;28;20419;-67
2021/09/11 00:04:48;;;;;;;8.17;7.47;;;;;;;22.03;55.25;96790.41;5085849;28;20198;-65
2021/09/11 00:07:15;;;;;;;8.97;8.10;;;;;;;22.03;55.50;96781.59;5080442;28;20469;-67
2021/09/11 00:09:41;;;;;;;8.60;7.70;;;;;;;21.79;56.31;96776.31;5082007;28;20428;-67
2021/09/11 00:12:07;;;;;;;8.60;7.80;;;;;;;21.66;56.50;96769.38;5089888;28;20439;-66
2021/09/11 00:14:33;;;;;;;8.27;7.57;;;;;;;21.75;56.57;96764.50;5084850;28;20452;-66
2021/09/11 00:16:58;;;;;;;8.07;7.27;;;;;;;21.79;56.11;96768.31;5082732;28;20785;-65
2021/09/11 00:19:24;;;;;;;8.00;7.20;;;;;;;22.03;55.49;96766.41;5084877;28;20231;-67
2021/09/11 00:21:49;;;;;;;9.23;8.20;;;;;;;22.24;55.12;96766.81;5094444;28;20272;-67
2021/09/11 00:24:15;;;;;;;7.80;7.00;;;;;;;21.92;55.54;96760.06;5091042;28;20197;-67
2021/09/11 00:26:41;;;;;;;8.13;7.33;;;;;;;21.66;56.82;96769.38;5090769;28;20674;-68
2021/09/11 00:29:06;;;;;;;7.70;7.00;;;;;;;21.56;57.00;96763.81;5090947;28;20209;-68
2021/09/11 00:31:32;;;;;;;8.43;7.53;;;;;;;21.91;55.82;96770.94;5089813;28;20182;-65
2021/09/11 00:33:58;;;;;;;8.30;7.50;;;;;;;21.77;56.29;96768.53;5090542;28;20201;-66
2021/09/11 00:36:23;;;;;;;7.87;7.20;;;;;;;21.88;55.90;96771.41;5091299;28;20646;-65
2021/09/11 00:38:49;;;;;;;8.57;7.80;;;;;;;21.78;56.58;96772.03;5090886;28;20201;-65
2021/09/11 00:41:15;;;;;;;7.80;7.10;;;;;;;22.13;55.37;96767.63;5091540;28;20182;-65
2021/09/11 00:43:46;;;;;;;8.07;7.37;;;;;;;21.78;56.19;96766.69;5090694;28;20209;-65
2021/09/11 00:46:12;;;;;;;10.00;8.00;;;;;;;21.96;56.22;96767.56;5091315;28;20281;-64
2021/09/11 00:48:37;;;;;;;7.70;7.00;;;;;;;22.18;55.19;96765.06;5090901;28;20430;-65
2021/09/11 00:51:03;;;;;;;8.03;7.33;;;;;;;21.83;56.49;96774.78;5088475;28;20858;-65
2021/09/11 00:53:29;;;;;;;7.87;6.97;;;;;;;21.99;55.80;96773.25;5089711;28;20204;-66
2021/09/11 00:55:54;;;;;;;7.93;7.00;;;;;;;21.98;56.13;96778.81;5090937;28;20496;-66
2021/09/11 00:58:20;;;;;;;12.10;7.50;;;;;;;22.05;56.29;96776.84;5089759;28;20637;-64
2021/09/11 01:00:45;;;;;;;8.00;7.30;;;;;;;22.15;56.69;96778.88;5090465;28;20190;-65
2021/09/11 01:03:11;;;;;;;9.13;7.13;;;;;;;21.84;57.99;96780.97;5090214;28;20251;-65
2021/09/11 01:05:38;;;;;;;11.93;7.60;;;;;;;21.99;57.66;96772.44;5094131;28;20326;-66
2021/09/11 01:08:04;;;;;;;7.83;7.13;;;;;;;21.57;59.04;96771.56;5091001;28;20189;-64
2021/09/11 01:10:30;;;;;;;8.80;7.93;;;;;;;21.58;59.35;96781.19;5090878;28;20424;-66
2021/09/11 01:12:56;;;;;;;7.93;7.23;;;;;;;21.13;60.60;96781.75;5090679;28;20216;-66
2021/09/11 01:15:32;;;;;;;9.90;7.03;;;;;;;21.20;60.93;96782.44;5091561;28;20181;-65
2021/09/11 01:17:58;;;;;;;7.90;6.70;;;;;;;21.35;59.93;96776.69;5089186;28;20201;-67
2021/09/11 01:20:23;;;;;;;7.97;7.17;;;;;;;21.34;60.09;96780.38;5089542;28;20951;-66
2021/09/11 01:22:49;;;;;;;9.00;6.87;;;;;;;21.57;59.93;96778.75;5094845;28;20571;-66
2021/09/11 01:25:15;;;;;;;9.20;7.73;;;;;;;20.96;62.35;96777.09;5095214;28;20227;-66
2021/09/11 01:27:40;;;;;;;8.47;7.60;;;;;;;21.26;61.46;96778.88;5094893;28;20227;-65
2021/09/11 01:30:14;;;;;;;7.40;6.70;;;;;;;21.49;60.55;96777.25;5094271;28;20190;-68
2021/09/11 01:32:39;;;;;;;8.37;7.57;;;;;;;21.15;61.47;96774.34;5094492;28;20193;-67
2021/09/11 01:35:06;;;;;;;10.13;6.90;;;;;;;21.35;61.22;96773.19;5094894;28;20499;-65
2021/09/11 01:37:32;;;;;;;8.13;7.33;;;;;;;21.46;61.00;96773.19;5094411;28;20225;-66
2021/09/11 01:39:57;;;;;;;9.83;7.80;;;;;;;21.60;60.50;96773.00;5093870;28;20450;-66
2021/09/11 01:42:26;;;;;;;8.00;7.30;;;;;;;21.67;60.40;96776.34;5095152;28;20526;-67
2021/09/11 01:44:57;;;;;;;7.97;7.27;;;;;;;21.61;60.39;96775.41;5094984;28;20272;-65
2021/09/11 01:47:23;;;;;;;8.90;7.30;;;;;;;21.53;60.67;96786.41;5095022;28;20422;-67
2021/09/11 01:49:49;;;;;;;8.40;7.70;;;;;;;21.58;60.45;96783.84;5091552;28;20423;-67
2021/09/11 01:52:15;;;;;;;8.40;7.60;;;;;;;21.53;60.63;96797.06;5096087;28;20433;-66
2021/09/11 01:54:41;;;;;;;10.80;8.30;;;;;;;21.54;60.67;96790.69;5098698;28;20439;-66
2021/09/11 01:57:10;;;;;;;7.63;7.00;;;;;;;21.57;60.68;96784.88;5093770;28;20193;-66
2021/09/11 01:59:37;;;;;;;8.30;7.60;;;;;;;21.62;60.67;96785.03;5094613;28;20512;-65
2021/09/11 02:02:03;;;;;;;8.80;7.90;;;;;;;21.63;60.51;96794.66;5099151;28;20444;-66
2021/09/11 02:04:28;;;;;;;11.80;7.57;;;;;;;21.68;60.57;96793.97;5112161;28;20443;-65
2021/09/11 02:06:54;;;;;;;8.70;7.80;;;;;;;21.66;60.40;96800.56;5111304;28;20529;-66
2021/09/11 02:09:19;;;;;;;7.50;6.80;;;;;;;21.55;61.01;96792.28;5111143;28;20263;-66
2021/09/11 02:11:45;;;;;;;8.80;8.00;;;;;;;21.53;61.04;96802.41;5119889;28;20195;-66
2021/09/11 02:14:11;;;;;;;8.60;7.70;;;;;;;21.53;60.56;96801.59;5111922;28;20194;-66
2021/09/11 02:16:36;;;;;;;10.20;7.40;;;;;;;21.49;60.53;96799.38;5111865;28;20637;-68
2021/09/11 02:19:02;;;;;;;8.83;7.50;;;;;;;20.90;62.63;96807.34;5112995;28;20190;-66
2021/09/11 02:21:28;;;;;;;8.60;7.80;;;;;;;21.09;61.92;96791.25;5092713;28;20209;-66
2021/09/11 02:23:53;;;;;;;7.50;6.80;;;;;;;21.36;61.34;96801.47;5091848;28;20564;-67
2021/09/11 02:26:19;;;;;;;9.57;7.60;;;;;;;21.43;60.73;96791.50;5094077;28;20181;-67
2021/09/11 02:28:44;;;;;;;7.93;7.23;;;;;;;21.45;61.07;96794.75;5091676;28;20694;-65
2021/09/11 02:31:11;;;;;;;9.10;8.10;;;;;;;21.42;60.83;96787.22;5093022;28;20174;-66
2021/09/11 02:33:41;;;;;;;9.67;7.70;;;;;;;21.45;60.76;96798.22;5093129;28;20546;-66
2021/09/11 02:36:07;;;;;;;8.40;7.53;;;;;;;21.42;60.93;96797.91;5093049;28;20419;-66
2021/09/11 02:38:33;;;;;;;8.37;7.57;;;;;;;21.46;60.26;96791.88;5092577;28;20447;-66
2021/09/11 02:40:59;;;;;;;9.10;7.80;;;;;;;21.50;60.43;96797.53;5096892;28;20291;-65
2021/09/11 02:43:24;;;;;;;8.50;7.70;;;;;;;21.48;60.61;96799.63;5093219;28;20428;-65
2021/09/11 02:45:50;;;;;;;7.83;7.13;;;;;;;21.51;60.39;96801.81;5093014;28;20655;-64
2021/09/11 02:48:16;;;;;;;8.23;7.37;;;;;;;21.50;60.78;96802.88;5092650;28;20205;-67
2021/09/11 02:50:41;;;;;;;8.10;7.30;;;;;;;20.61;63.70;96806.25;5089817;28;20327;-65
2021/09/11 02:53:07;;;;;;;8.63;7.83;;;;;;;21.21;61.17;96800.06;5093336;28;20285;-66
2021/09/11 02:55:32;;;;;;;8.80;7.90;;;;;;;20.90;62.26;96799.34;5092990;28;20181;-66
2021/09/11 02:57:58;;;;;;;8.47;7.70;;;;;;;20.48;63.99;96801.94;5092678;28;20201;-66
2021/09/11 03:00:24;;;;;;;7.90;7.20;;;;;;;20.31;64.75;96801.75;5093154;28;20586;-65
2021/09/11 03:02:49;;;;;;;8.97;8.07;;;;;;;20.65;63.80;96805.63;5092416;28;20207;-66
2021/09/11 03:05:15;;;;;;;8.70;7.90;;;;;;;20.62;63.92;96798.06;5092347;28;20181;-67
2021/09/11 03:07:40;;;;;;;8.00;7.10;;;;;;;20.65;63.25;96802.94;5092600;28;20268;-66
2021/09/11 03:10:06;;;;;;;7.83;7.03;;;;;;;20.77;63.13;96794.22;5091874;28;20181;-65
2021/09/11 03:12:32;;;;;;;7.50;6.90;;;;;;;20.89;62.51;96789.72;5093460;28;20189;-66
2021/09/11 03:14:57;;;;;;;7.03;6.53;;;;;;;20.75;62.70;96785.63;5092414;28;20211;-66
2021/09/11 03:17:23;;;;;;;6.93;6.33;;;;;;;20.99;61.96;96792.63;5091053;28;20220;-65
2021/09/11 03:19:49;;;;;;;8.33;7.57;;;;;;;20.86;62.73;96785.66;5090084;28;20188;-66
2021/09/11 03:22:14;;;;;;;8.20;7.50;;;;;;;20.63;63.59;96786.38;5092170;28;20205;-65
2021/09/11 03:24:40;;;;;;;7.27;6.63;;;;;;;20.86;63.07;96780.31;5091441;28;20205;-66
2021/09/11 03:27:06;;;;;;;6.90;6.30;;;;;;;21.05;61.89;96785.56;5090593;28;20185;-66
2021/09/11 03:29:31;;;;;;;7.80;6.90;;;;;;;21.08;61.91;96782.47;5086066;28;20695;-65
2021/09/11 03:31:57;;;;;;;7.03;6.33;;;;;;;21.08;61.38;96790.44;5089161;28;20423;-64
2021/09/11 03:34:23;;;;;;;6.83;6.23;;;;;;;21.00;62.21;96788.94;5092217;28;20268;-66
2021/09/11 03:36:48;;;;;;;7.40;6.70;;;;;;;20.97;62.15;96788.59;5087068;28;20209;-68
2021/09/11 03:39:14;;;;;;;6.97;6.37;;;;;;;20.87;62.39;96786.47;5080103;28;20610;-65
2021/09/11 03:41:39;;;;;;;8.60;6.47;;;;;;;21.05;61.91;96787.41;5091073;28;20204;-65
2021/09/11 03:44:05;;;;;;;6.97;6.37;;;;;;;20.90;62.22;96791.34;5090871;28;20210;-66
2021/09/11 03:46:30;;;;;;;6.67;6.17;;;;;;;21.09;61.57;96793.91;5094234;28;20185;-66
2021/09/11 03:48:56;;;;;;;8.50;6.20;;;;;;;20.92;62.24;96791.13;5091268;28;20192;-66
2021/09/11 03:51:22;;;;;;;7.17;6.10;;;;;;;20.46;64.33;96799.53;5091518;28;20218;-66
2021/09/11 03:53:47;;;;;;;6.90;6.20;;;;;;;20.77;63.35;96788.88;5091858;28;20687;-67
2021/09/11 03:56:13;;;;;;;7.03;5.80;;;;;;;20.91;62.66;96786.81;5091450;28;20178;-65
2021/09/11 03:58:38;;;;;;;5.90;5.40;;;;;;;20.97;62.54;96794.72;5091059;28;20210;-67
2021/09/11 04:01:04;;;;;;;7.53;4.93;;;;;;;20.95;62.96;96791.47;5090656;28;20192;-67
2021/09/11 04:03:31;;;;;;;6.20;5.60;;;;;;;20.54;63.99;96795.75;5091286;28;20656;-67
2021/09/11 04:05:57;;;;;;;6.00;5.33;;;;;;;20.50;64.87;96789.22;5092691;28;20539;-66
2021/09/11 04:08:24;;;;;;;6.03;5.53;;;;;;;20.93;63.09;96798.84;5092965;28;20412;-67
2021/09/11 04:10:50;;;;;;;5.83;5.33;;;;;;;21.11;62.25;96781.19;5090888;28;21058;-66
2021/09/11 04:13:16;;;;;;;7.03;5.53;;;;;;;21.22;61.67;96791.03;5091737;28;20439;-66
2021/09/11 04:15:41;;;;;;;6.03;5.53;;;;;;;21.01;62.47;96793.22;5091110;28;20771;-66
2021/09/11 04:18:07;;;;;;;5.47;5.03;;;;;;;21.04;62.59;96805.25;5090213;28;20197;-66
2021/09/11 04:20:33;;;;;;;5.40;4.90;;;;;;;21.12;62.27;96799.59;5090658;28;20185;-67
2021/09/11 04:22:58;;;;;;;5.80;5.03;;;;;;;21.25;62.11;96803.91;5096369;28;20205;-65
2021/09/11 04:25:24;;;;;;;4.77;4.37;;;;;;;21.35;61.61;96799.84;5091318;28;20650;-66
2021/09/11 04:27:49;;;;;;;6.97;4.70;;;;;;;21.31;61.92;96804.84;5092779;28;20173;-66
2021/09/11 04:30:15;;;;;;;6.00;4.80;;;;;;;21.42;61.51;96803.22;5090792;28;20268;-66
2021/09/11 04:32:41;;;;;;;6.47;5.03;;;;;;;21.43;61.25;96808.31;5090487;28;20209;-66
2021/09/11 04:35:07;;;;;;;5.63;5.10;;;;;;;21.42;61.53;96808.56;5090251;28;20268;-65
2021/09/11 04:37:32;;;;;;;5.03;4.63;;;;;;;21.49;61.09;96801.25;5090298;28;20198;-67
2021/09/11 04:39:59;;;;;;;4.90;4.50;;;;;;;21.50;61.23;96813.53;5084489;28;20435;-68
2021/09/11 04:42:25;;;;;;;5.13;4.73;;;;;;;21.35;61.91;96800.66;5095253;28;20269;-67
2021/09/11 04:44:50;;;;;;;5.40;5.00;;;;;;;21.30;62.02;96804.00;5091759;28;20512;-67
2021/09/11 04:47:16;;;;;;;5.60;5.10;;;;;;;21.33;61.87;96819.53;5090785;28;20173;-66
2021/09/11 04:49:41;;;;;;;5.40;4.90;;;;;;;21.29;62.31;96813.06;5090097;28;20775;-65
2021/09/11 04:52:07;;;;;;;6.43;4.80;;;;;;;21.30;62.22;96812.00;5090528;28;20204;-66
2021/09/11 04:54:33;;;;;;;5.47;4.97;;;;;;;21.36;61.97;96809.47;5093199;28;20202;-67
2021/09/11 04:56:58;;;;;;;5.60;5.10;;;;;;;21.17;62.32;96810.38;5092559;28;20209;-67
2021/09/11 04:59:25;;;;;;;5.50;5.00;;;;;;;21.07;62.98;96815.47;5094233;28;20271;-66
2021/09/11 05:01:51;;;;;;;5.87;5.17;;;;;;;21.14;62.83;96815.38;5094760;28;20703;-66
2021/09/11 05:04:17;;;;;;;5.50;4.97;;;;;;;21.16;62.66;96815.94;5094145;28;20448;-66
2021/09/11 05:06:42;;;;;;;5.27;4.77;;;;;;;21.08;63.14;96808.28;5095253;28;20213;-67
2021/09/11 05:09:08;;;;;;;6.37;5.23;;;;;;;20.99;63.55;96819.28;5092404;28;20273;-66
2021/09/11 05:11:34;;;;;;;6.10;5.50;;;;;;;21.06;63.46;96810.34;5094814;28;20281;-66
2021/09/11 05:14:00;;;;;;;5.60;4.77;;;;;;;21.06;63.29;96821.84;5094134;28;20202;-67
2021/09/11 05:16:25;;;;;;;10.53;4.50;;;;;;;21.10;63.16;96824.84;5094641;28;20177;-66
2021/09/11 05:18:51;;;;;;;4.77;4.37;;;;;;;21.09;63.18;96823.22;5093716;28;20698;-66
2021/09/11 05:21:16;;;;;;;5.37;4.87;;;;;;;20.99;63.72;96827.25;5094452;28;20182;-66
2021/09/11 05:23:42;;;;;;;5.73;5.20;;;;;;;20.96;63.83;96830.38;5094060;28;20294;-67
2021/09/11 05:26:08;;;;;;;4.90;4.50;;;;;;;21.12;63.63;96828.09;5093895;28;20680;-66
2021/09/11 05:28:33;;;;;;;7.60;5.80;;;;;;;21.14;63.41;96826.81;5093782;28;20173;-65
2021/09/11 05:30:59;;;;;;;5.17;4.77;;;;;;;21.13;63.24;96829.72;5094319;28;20189;-66
2021/09/11 05:33:24;;;;;;;5.00;4.50;;;;;;;21.18;63.20;96832.50;5094065;28;20198;-68
2021/09/11 05:35:50;;;;;;;5.30;4.80;;;;;;;21.21;63.06;96828.56;5094060;28;20264;-67
2021/09/11 05:38:16;;;;;;;6.03;5.03;;;;;;;20.95;63.63;96834.06;5089578;28;20270;-66
2021/09/11 05:40:41;;;;;;;5.07;4.67;;;;;;;20.78;64.81;96831.25;5094046;28;20523;-66
2021/09/11 05:43:07;;;;;;;4.60;4.20;;;;;;;20.86;64.13;96833.59;5093390;28;20239;-67
2021/09/11 05:45:33;;;;;;;6.10;4.43;;;;;;;20.76;64.85;96845.84;5094129;28;20190;-66
2021/09/11 05:47:58;;;;;;;4.60;4.20;;;;;;;21.01;63.89;96843.81;5091499;28;20632;-66
2021/09/11 05:50:24;;;;;;;4.77;4.37;;;;;;;21.21;63.41;96842.69;5094517;28;20220;-67
2021/09/11 05:52:49;;;;;;;4.37;3.93;;;;;;;21.28;62.87;96846.09;5093330;28;20208;-68
2021/09/11 05:55:17;;;;;;;4.30;3.87;;;;;;;21.37;62.71;96841.19;5096474;28;20178;-66
2021/09/11 05:57:43;;;;;;;4.90;4.40;;;;;;;21.24;63.12;96849.41;5093604;28;20194;-67
2021/09/11 06:00:09;;;;;;;4.43;4.03;;;;;;;21.12;63.48;96849.41;5093505;28;20773;-68
2021/09/11 06:02:34;;;;;;;4.67;3.83;;;;;;;21.17;63.40;96842.34;5093877;28;20208;-66
2021/09/11 06:05:00;;;;;;;4.33;3.93;;;;;;;21.36;62.88;96849.44;5092096;28;20185;-68
2021/09/11 06:07:26;;;;;;;5.47;4.43;;;;;;;21.07;63.50;96846.59;5093902;28;20669;-67
2021/09/11 06:09:51;;;;;;;4.37;3.97;;;;;;;20.87;64.48;96842.41;5093726;28;20185;-66
2021/09/11 06:12:17;;;;;;;5.17;4.13;;;;;;;21.07;64.07;96849.25;5095688;28;20177;-66
2021/09/11 06:14:42;;;;;;;3.63;3.33;;;;;;;21.29;63.18;96846.88;5098128;28;20209;-66
2021/09/11 06:17:09;;;;;;;6.73;3.63;;;;;;;21.15;63.48;96854.28;5090956;28;20186;-66
2021/09/11 06:19:35;;;;;;;3.90;3.60;;;;;;;21.24;63.26;96849.41;5087967;28;20674;-66
2021/09/11 06:22:00;;;;;;;3.80;3.20;;;;;;;21.10;63.84;96854.97;5093211;28;20544;-67
2021/09/11 06:24:26;;;;;;;3.80;3.50;;;;;;;21.28;63.99;96858.56;5093214;28;20482;-66
2021/09/11 06:26:52;;;;;;;3.60;3.40;;;;;;;21.00;64.13;96865.34;5093289;28;20247;-66
2021/09/11 06:29:17;;;;;;;4.40;3.73;;;;;;;21.35;63.58;96853.13;5095113;28;20889;-65
2021/09/11 06:31:43;;;;;;;4.20;3.33;;;;;;;20.92;65.43;96860.34;5092703;28;20227;-65
2021/09/11 06:34:08;;;;;;;4.23;3.13;;;;;;;21.20;64.15;96861.59;5093161;28;20285;-64
2021/09/11 06:36:34;;;;;;;3.80;3.50;;;;;;;21.38;63.75;96855.34;5092239;28;20197;-64
2021/09/11 06:39:00;;;;;;;3.57;3.27;;;;;;;21.54;63.12;96852.00;5092917;28;20611;-65
2021/09/11 06:41:25;;;;;;;4.00;3.60;;;;;;;21.81;62.00;96850.75;5091600;28;20182;-65
2021/09/11 06:43:51;;;;;;;3.23;3.03;;;;;;;22.08;61.14;96856.41;5092869;28;20288;-66
2021/09/11 06:46:16;;;;;;;4.13;3.17;;;;;;;22.01;61.62;96863.72;5092648;28;20182;-66
2021/09/11 06:48:42;;;;;;;3.40;3.10;;;;;;;22.18;60.85;96863.81;5084507;28;20641;-67
2021/09/11 06:51:10;;;;;;;3.10;2.90;;;;;;;21.71;61.76;96862.81;5093498;28;20248;-65
2021/09/11 06:53:36;;;;;;;3.47;2.80;;;;;;;21.61;62.03;96858.06;5092615;28;20213;-64
2021/09/11 06:56:02;;;;;;;2.53;2.40;;;;;;;22.01;61.22;96850.38;5086548;28;20424;-65
2021/09/11 06:58:27;;;;;;;3.60;2.90;;;;;;;21.95;61.52;96860.13;5081928;28;20197;-66
2021/09/11 07:00:53;;;;;;;3.03;2.67;;;;;;;22.06;60.82;96861.97;5095129;28;20213;-65
2021/09/11 07:03:18;;;;;;;3.30;3.00;;;;;;;22.09;60.74;96852.69;5092772;28;20801;-64
2021/09/11 07:05:44;;;;;;;3.50;2.70;;;;;;;21.96;60.84;96859.09;5093025;28;20189;-64
2021/09/11 07:08:09;;;;;;;6.17;5.57;;;;;;;22.02;60.87;96863.47;5095531;28;20584;-64
2021/09/11 07:10:35;;;;;;;5.07;3.70;;;;;;;21.40;63.54;96866.59;5093917;28;20276;-64
2021/09/11 07:13:01;;;;;;;3.77;2.80;;;;;;;21.40;63.04;96862.06;5091907;28;20231;-65
2021/09/11 07:15:26;;;;;;;3.20;3.00;;;;;;;21.11;64.65;96864.56;5089892;28;20213;-66
2021/09/11 07:17:53;;;;;;;3.43;3.23;;;;;;;21.80;62.82;96865.94;5089927;28;20229;-67
2021/09/11 07:20:18;;;;;;;3.27;3.00;;;;;;;22.22;61.22;96862.31;5091103;28;20601;-67
2021/09/11 07:22:44;;;;;;;3.07;2.87;;;;;;;22.33;60.86;96863.31;5091446;28;20423;-67
2021/09/11 07:25:10;;;;;;;3.97;3.57;;;;;;;22.35;60.70;96866.56;5091877;28;20185;-65
2021/09/11 07:27:35;;;;;;;5.00;4.40;;;;;;;22.32;61.12;96861.69;5091113;28;20197;-63
2021/09/11 07:30:02;;;;;;;4.73;3.90;;;;;;;22.57;60.58;96873.94;5091624;28;20438;-65
2021/09/11 07:32:27;;;;;;;3.50;3.20;;;;;;;22.75;59.84;96876.44;5092023;28;20553;-66
2021/09/11 07:34:53;;;;;;;3.63;3.13;;;;;;;23.09;58.70;96868.47;5072274;28;20527;-66
2021/09/11 07:37:19;;;;;;;3.50;3.20;;;;;;;23.01;58.63;96871.56;5090433;28;20644;-68
2021/09/11 07:39:45;;;;;;;3.83;3.57;;;;;;;22.97;58.62;96873.06;5089938;28;20438;-66
2021/09/11 07:42:10;;;;;;;3.90;3.37;;;;;;;22.94;58.72;96876.22;5090352;28;20201;-66
2021/09/11 07:44:36;;;;;;;3.83;3.53;;;;;;;22.44;60.88;96877.72;5090473;28;20289;-66
2021/09/11 07:47:01;;;;;;;4.30;3.83;;;;;;;22.42;60.21;96879.78;5087386;28;20235;-66
2021/09/11 07:49:27;;;;;;;4.60;3.63;;;;;;;22.64;59.54;96885.31;5089078;28;20250;-65
2021/09/11 07:51:53;;;;;;;3.60;3.20;;;;;;;22.48;59.75;96879.66;5089870;28;20185;-65
2021/09/11 07:54:18;;;;;;;6.00;3.30;;;;;;;22.46;59.80;96884.41;5097364;28;20197;-66
2021/09/11 07:56:44;;;;;;;5.97;3.57;;;;;;;23.05;58.39;96882.56;5090308;28;20200;-67
2021/09/11 07:59:09;;;;;;;7.53;3.63;;;;;;;22.78;59.20;96883.97;5090833;28;20582;-66
2021/09/11 08:01:35;;;;;;;3.30;3.10;;;;;;;23.08;57.54;96885.56;5091494;28;20554;-66
2021/09/11 08:04:00;;;;;;;3.77;3.47;;;;;;;23.49;57.42;96890.00;5089418;28;20198;-65
2021/09/11 08:06:26;;;;;;;4.90;4.23;;;;;;;23.65;56.29;96886.53;5091815;28;20177;-65
2021/09/11 08:08:52;;;;;;;5.70;5.20;;;;;;;23.85;56.20;96882.53;5091216;28;20621;-66
2021/09/11 08:11:17;;;;;;;4.27;3.90;;;;;;;23.81;55.81;96894.78;5091440;28;20193;-65
2021/09/11 08:13:43;;;;;;;4.00;3.70;;;;;;;23.06;58.19;96892.22;5090989;28;20680;-65
2021/09/11 08:16:09;;;;;;;3.60;3.30;;;;;;;23.37;57.37;96893.56;5090858;28;20551;-66
2021/09/11 08:18:35;;;;;;;5.17;4.67;;;;;;;23.82;55.96;96891.06;5094945;28;20454;-66
2021/09/11 08:21:00;;;;;;;6.60;4.60;;;;;;;24.22;55.21;96893.50;5093020;28;20251;-66
2021/09/11 08:23:26;;;;;;;4.67;4.23;;;;;;;24.38;53.99;96894.50;5097443;28;20201;-65
2021/09/11 08:25:52;;;;;;;4.63;3.50;;;;;;;24.01;54.76;96911.16;5094695;28;20193;-69
2021/09/11 08:28:18;;;;;;;4.10;3.60;;;;;;;23.38;56.72;96911.25;5090743;28;20174;-68
2021/09/11 08:30:43;;;;;;;3.93;3.50;;;;;;;24.01;54.61;96907.66;5090807;28;20254;-65
2021/09/11 08:33:13;;;;;;;6.97;4.50;;;;;;;24.07;54.61;96904.81;5089541;28;20218;-65
2021/09/11 08:35:39;;;;;;;3.70;3.40;;;;;;;23.89;54.64;96905.84;5088212;28;20225;-67
2021/09/11 08:38:04;;;;;;;3.90;3.47;;;;;;;23.43;55.81;96914.00;5090527;28;20513;-66
2021/09/11 08:40:31;;;;;;;3.93;3.53;;;;;;;24.11;53.80;96901.63;5090342;28;20451;-65
2021/09/11 08:42:58;;;;;;;3.97;3.60;;;;;;;23.75;55.06;96905.41;5090481;28;20852;-65
2021/09/11 08:45:23;;;;;;;3.83;3.43;;;;;;;23.69;55.53;96911.72;5091115;28;20264;-65
2021/09/11 08:47:49;;;;;;;3.93;3.53;;;;;;;24.41;53.56;96903.09;5082832;28;20850;-66
2021/09/11 08:50:17;;;;;;;3.77;3.20;;;;;;;24.66;52.66;96903.41;5091037;28;20659;-66
2021/09/11 08:52:45;;;;;;;4.00;3.60;;;;;;;24.62;52.42;96902.28;5090829;28;20416;-67
2021/09/11 08:55:11;;;;;;;4.00;3.67;;;;;;;24.90;51.99;96907.69;5090812;28;20476;-65
2021/09/11 08:57:37;;;;;;;3.87;3.47;;;;;;;23.88;54.73;96908.78;5090857;28;20451;-66
2021/09/11 09:00:08;;;;;;;4.27;3.60;;;;;;;25.06;51.74;96911.38;5093500;28;20419;-65
2021/09/11 09:02:34;;;;;;;4.53;4.13;;;;;;;25.43;51.15;96900.72;5085725;28;20196;-66
2021/09/11 09:05:01;;;;;;;4.73;3.10;;;;;;;25.94;48.87;96898.69;5084944;28;20779;-67
2021/09/11 09:07:39;;;;;;;3.60;3.30;;;;;;;26.39;47.74;96891.94;5089478;28;20416;-64
2021/09/11 09:10:09;;;;;;;4.90;4.50;;;;;;;26.79;46.41;96890.50;5091556;28;20432;-65
2021/09/11 09:12:43;;;;;;;7.03;4.40;;;;;;;27.33;44.79;96888.44;5091871;28;20813;-64
2021/09/11 09:15:20;;;;;;;3.30;3.00;;;;;;;27.13;44.84;96891.91;5092839;28;20481;-66
2021/09/11 09:17:54;;;;;;;3.73;2.30;;;;;;;26.09;46.30;96898.75;5086173;28;20521;-64
2021/09/11 09:20:25;;;;;;;2.53;2.33;;;;;;;24.87;49.92;96892.16;5094593;28;20419;-64
2021/09/11 09:23:12;;;;;;;5.10;2.87;;;;;;;25.78;48.57;96903.94;5098383;28;20432;-67
2021/09/11 09:25:38;;;;;;;2.57;2.37;;;;;;;25.93;48.00;96897.84;5099634;28;20527;-67
2021/09/11 09:28:07;;;;;;;2.70;2.50;;;;;;;25.38;48.51;96894.47;5099178;28;20415;-64
2021/09/11 09:30:53;;;;;;;3.10;2.80;;;;;;;25.14;49.81;96886.78;5072663;28;20514;-66
2021/09/11 09:33:20;;;;;;;3.00;2.70;;;;;;;25.73;48.15;96898.53;5090889;28;20447;-65
2021/09/11 09:35:47;;;;;;;2.87;2.67;;;;;;;25.35;48.86;96897.66;5091296;28;20506;-65
2021/09/11 09:38:13;;;;;;;3.60;3.00;;;;;;;25.47;47.92;96895.66;5089557;28;20898;-64
2021/09/11 09:40:50;;;;;;;3.20;2.87;;;;;;;25.74;47.04;96892.91;5090327;28;21010;-65
2021/09/11 09:43:34;;;;;;;3.03;2.80;;;;;;;25.73;47.09;96898.53;5094971;28;20487;-65
2021/09/11 09:46:11;;;;;;;7.10;3.57;;;;;;;25.15;49.44;96888.38;5094003;28;20717;-68
2021/09/11 09:48:38;;;;;;;4.77;3.00;;;;;;;25.85;47.56;96884.94;5086432;28;20500;-66
2021/09/11 09:51:06;;;;;;;2.80;2.60;;;;;;;25.69;47.33;96889.41;5094473;28;20513;-63
2021/09/11 09:53:33;;;;;;;4.30;2.53;;;;;;;26.54;46.11;96883.13;5099489;28;21029;-66
2021/09/11 09:55:59;;;;;;;3.63;2.97;;;;;;;26.98;44.73;96879.25;5096009;28;20435;-65
2021/09/11 09:58:25;;;;;;;2.80;2.60;;;;;;;27.33;44.02;96874.16;5094609;28;20479;-64
2021/09/11 10:00:51;;;;;;;3.40;2.80;;;;;;;27.17;43.83;96874.16;5094138;28;20432;-65
2021/09/11 10:03:16;;;;;;;5.10;3.07;;;;;;;27.48;43.23;96878.75;5094234;28;20605;-66
2021/09/11 10:05:45;;;;;;;3.30;3.00;;;;;;;27.51;42.95;96875.53;5093765;28;20192;-64
2021/09/11 10:08:11;;;;;;;2.80;2.60;;;;;;;27.77;42.74;96878.19;5092483;28;20210;-64
2021/09/11 10:10:42;;;;;;;2.60;2.40;;;;;;;27.65;42.75;96873.91;5072113;28;20429;-67
2021/09/11 10:13:10;;;;;;;2.23;2.10;;;;;;;27.95;42.53;96864.19;5093546;28;20966;-66
2021/09/11 10:15:38;;;;;;;3.77;2.57;;;;;;;28.38;41.52;96862.97;5070144;28;20417;-65
2021/09/11 10:18:30;;;;;;;3.13;2.40;;;;;;;28.22;41.27;96863.06;5070902;28;20539;-66
2021/09/11 10:21:34;;;;;;;3.13;2.70;;;;;;;27.61;42.75;96864.75;5092530;28;20745;-64
2021/09/11 10:24:00;;;;;;;2.50;2.10;;;;;;;26.94;43.87;96860.16;5101134;28;20443;-65
2021/09/11 10:27:08;;;;;;;3.20;2.93;;;;;;;26.88;44.02;96855.03;5093434;28;20420;-66
2021/09/11 10:29:37;;;;;;;4.83;2.80;;;;;;;27.32;43.21;96856.41;5070218;28;20201;-66
2021/09/11 10:32:08;;;;;;;3.23;2.70;;;;;;;25.59;47.19;96865.97;5051988;28;20428;-67
2021/09/11 10:35:04;;;;;;;3.67;2.50;;;;;;;25.20;48.31;96858.13;5070044;28;20871;-64
2021/09/11 10:37:33;;;;;;;2.47;2.10;;;;;;;25.60;47.40;96857.66;5069883;28;20615;-66
2021/09/11 10:40:31;;;;;;;3.13;2.50;;;;;;;25.61;47.54;96855.81;5070521;28;20424;-66
2021/09/11 10:43:11;;;;;;;4.07;2.33;;;;;;;25.86;47.63;96849.78;5012612;28;20542;-65
2021/09/11 10:45:53;;;;;;;2.53;2.33;;;;;;;25.80;48.65;96850.00;4994611;28;20467;-65
2021/09/11 10:48:36;;;;;;;3.43;2.77;;;;;;;25.41;49.36;96856.47;4994928;28;20426;-65
2021/09/11 10:51:16;;;;;;;2.83;2.40;;;;;;;25.09;50.13;96851.88;5009514;28;20918;-66
2021/09/11 10:54:15;;;;;;;4.30;3.90;;;;;;;24.21;52.97;96851.75;5009825;28;20449;-65
2021/09/11 10:56:40;;;;;;;4.20;2.80;;;;;;;24.30;52.60;96852.13;4959803;28;20521;-65
2021/09/11 10:59:18;;;;;;;3.50;2.53;;;;;;;23.73;55.02;96867.38;4959263;28;20492;-66
2021/09/11 11:01:52;;;;;;;2.73;2.50;;;;;;;23.67;55.72;96862.19;4971903;28;20204;-67
2021/09/11 11:04:28;;;;;;;2.60;2.40;;;;;;;23.73;56.24;96856.69;4970038;28;20447;-67
2021/09/11 11:06:56;;;;;;;9.00;3.87;;;;;;;22.96;60.56;96871.47;4951852;28;20428;-66
2021/09/11 11:09:22;;;;;;;4.60;3.47;;;;;;;22.71;62.63;96875.28;4971246;28;20448;-67
2021/09/11 11:11:50;;;;;;;18.10;4.33;;;;;;;22.03;66.36;96880.31;4978227;28;20946;-65
2021/09/11 11:14:16;;;;;;;13.23;3.60;;;;;;;21.44;67.92;96891.72;4971062;28;20998;-65
2021/09/11 11:16:54;;;;;;;10.90;2.80;;;;;;;21.46;66.82;96887.00;4971315;28;20432;-65
2021/09/11 11:19:31;;;;;;;3.97;2.30;;;;;;;21.54;65.93;96885.84;4979686;28;20250;-68
2021/09/11 11:22:08;;;;;;;6.20;2.50;;;;;;;21.10;68.05;96899.44;5029613;28;20434;-68
2021/09/11 11:24:38;;;;;;;5.90;2.80;;;;;;;21.72;66.80;96890.28;5026527;28;20607;-65
2021/09/11 11:27:19;;;;;;;5.37;3.00;;;;;;;22.17;66.21;96876.34;5001888;28;20435;-66
2021/09/11 11:29:49;;;;;;;7.63;3.20;;;;;;;21.65;67.58;96894.94;5029380;28;20430;-67
2021/09/11 11:32:15;;;;;;;4.50;3.93;;;;;;;22.42;66.11;96879.78;5029817;28;20786;-65
2021/09/11 11:34:41;;;;;;;5.43;4.00;;;;;;;22.54;65.01;96883.25;5084688;28;20524;-66
2021/09/11 11:37:11;;;;;;;9.20;4.77;;;;;;;23.09;65.12;96881.03;5090923;28;20926;-65